sensor_id;sensor_type;location;lat;lon;timestamp;P1;durP1;ratioP1;P2;durP2;ratioP2
10863;SDS011;5485;37.558;126.950;2022-07-23T00:01:40;51.85;;;42.67;;
10863;SDS011;5485;37.558;126.950;2022-07-23T00:04:07;46.30;;;39.97;;
10863;SDS011;5485;37.558;126.950;2022-07-23T00:06:34;46.17;;;39.50;;
10863;SDS011;5485;37.558;126.950;2022-07-23T00:09:00;49.15;;;42.03;;
10863;SDS011;5485;37.558;126.950;2022-07-23T00:11:27;48.45;;;41.50;;
10863;SDS011;5485;37.558;126.950;2022-07-23T00:13:54;48.58;;;39.85;;
10863;SDS011;5485;37.558;126.950;2022-07-23T00:16:23;42.15;;;37.55;;
10863;SDS011;5485;37.558;126.950;2022-07-23T00:18:51;50.50;;;43.50;;
10863;SDS011;5485;37.558;126.950;2022-07-23T00:21:18;47.60;;;42.40;;
10863;SDS011;5485;37.558;126.950;2022-07-23T00:23:44;45.92;;;39.90;;
10863;SDS011;5485;37.558;126.950;2022-07-23T00:26:11;51.47;;;41.90;;
10863;SDS011;5485;37.558;126.950;2022-07-23T00:28:38;45.67;;;40.70;;
10863;SDS011;5485;37.558;126.950;2022-07-23T00:31:05;48.72;;;41.75;;
10863;SDS011;5485;37.558;126.950;2022-07-23T00:33:32;51.97;;;42.88;;
10863;SDS011;5485;37.558;126.950;2022-07-23T00:35:59;51.95;;;43.95;;
10863;SDS011;5485;37.558;126.950;2022-07-23T00:38:26;45.63;;;39.60;;
10863;SDS011;5485;37.558;126.950;2022-07-23T00:40:53;46.97;;;40.75;;
10863;SDS011;5485;37.558;126.950;2022-07-23T00:43:20;47.80;;;41.83;;
10863;SDS011;5485;37.558;126.950;2022-07-23T00:45:47;51.28;;;42.97;;
10863;SDS011;5485;37.558;126.950;2022-07-23T00:48:14;44.70;;;38.35;;
10863;SDS011;5485;37.558;126.950;2022-07-23T00:50:42;45.83;;;40.90;;
10863;SDS011;5485;37.558;126.950;2022-07-23T00:53:09;43.03;;;38.30;;
10863;SDS011;5485;37.558;126.950;2022-07-23T00:55:37;47.55;;;41.25;;
10863;SDS011;5485;37.558;126.950;2022-07-23T00:58:04;50.00;;;42.17;;
10863;SDS011;5485;37.558;126.950;2022-07-23T01:00:31;42.40;;;35.92;;
10863;SDS011;5485;37.558;126.950;2022-07-23T01:02:58;46.08;;;40.22;;
10863;SDS011;5485;37.558;126.950;2022-07-23T01:05:25;43.08;;;38.38;;
10863;SDS011;5485;37.558;126.950;2022-07-23T01:07:52;41.63;;;37.20;;
10863;SDS011;5485;37.558;126.950;2022-07-23T01:10:19;41.80;;;36.53;;
10863;SDS011;5485;37.558;126.950;2022-07-23T01:15:26;41.83;;;37.33;;
10863;SDS011;5485;37.558;126.950;2022-07-23T01:17:53;45.50;;;35.78;;
10863;SDS011;5485;37.558;126.950;2022-07-23T01:20:21;39.50;;;35.25;;
10863;SDS011;5485;37.558;126.950;2022-07-23T01:22:48;38.15;;;34.03;;
10863;SDS011;5485;37.558;126.950;2022-07-23T01:25:16;39.03;;;34.83;;
10863;SDS011;5485;37.558;126.950;2022-07-23T01:27:43;36.85;;;33.03;;
10863;SDS011;5485;37.558;126.950;2022-07-23T01:30:10;40.60;;;34.88;;
10863;SDS011;5485;37.558;126.950;2022-07-23T01:32:38;39.08;;;34.90;;
10863;SDS011;5485;37.558;126.950;2022-07-23T01:35:05;37.88;;;33.95;;
10863;SDS011;5485;37.558;126.950;2022-07-23T01:37:33;38.35;;;33.72;;
10863;SDS011;5485;37.558;126.950;2022-07-23T01:40:00;38.80;;;34.90;;
10863;SDS011;5485;37.558;126.950;2022-07-23T01:42:27;37.58;;;33.53;;
10863;SDS011;5485;37.558;126.950;2022-07-23T01:44:54;38.65;;;33.63;;
10863;SDS011;5485;37.558;126.950;2022-07-23T01:47:21;36.25;;;32.38;;
10863;SDS011;5485;37.558;126.950;2022-07-23T01:49:48;36.13;;;32.25;;
10863;SDS011;5485;37.558;126.950;2022-07-23T01:52:15;34.40;;;30.83;;
10863;SDS011;5485;37.558;126.950;2022-07-23T01:54:41;35.03;;;31.50;;
10863;SDS011;5485;37.558;126.950;2022-07-23T01:57:08;40.30;;;32.13;;
10863;SDS011;5485;37.558;126.950;2022-07-23T01:59:36;38.95;;;34.58;;
10863;SDS011;5485;37.558;126.950;2022-07-23T02:02:04;35.95;;;31.92;;
10863;SDS011;5485;37.558;126.950;2022-07-23T02:04:31;41.78;;;33.17;;
10863;SDS011;5485;37.558;126.950;2022-07-23T02:07:02;35.25;;;31.60;;
10863;SDS011;5485;37.558;126.950;2022-07-23T02:09:29;33.80;;;30.50;;
10863;SDS011;5485;37.558;126.950;2022-07-23T02:11:56;34.65;;;31.02;;
10863;SDS011;5485;37.558;126.950;2022-07-23T02:14:24;34.05;;;30.52;;
10863;SDS011;5485;37.558;126.950;2022-07-23T02:16:51;34.78;;;30.92;;
10863;SDS011;5485;37.558;126.950;2022-07-23T02:19:18;33.30;;;29.80;;
10863;SDS011;5485;37.558;126.950;2022-07-23T02:21:45;32.63;;;29.42;;
10863;SDS011;5485;37.558;126.950;2022-07-23T02:24:12;35.47;;;31.85;;
10863;SDS011;5485;37.558;126.950;2022-07-23T02:26:39;35.42;;;31.23;;
10863;SDS011;5485;37.558;126.950;2022-07-23T02:29:11;31.92;;;28.77;;
10863;SDS011;5485;37.558;126.950;2022-07-23T02:31:38;32.17;;;29.00;;
10863;SDS011;5485;37.558;126.950;2022-07-23T02:34:05;34.42;;;30.88;;
10863;SDS011;5485;37.558;126.950;2022-07-23T02:36:32;30.80;;;27.67;;
10863;SDS011;5485;37.558;126.950;2022-07-23T02:38:59;32.08;;;28.88;;
10863;SDS011;5485;37.558;126.950;2022-07-23T02:41:26;34.17;;;30.63;;
10863;SDS011;5485;37.558;126.950;2022-07-23T02:43:53;31.75;;;28.80;;
10863;SDS011;5485;37.558;126.950;2022-07-23T02:46:20;30.67;;;27.58;;
10863;SDS011;5485;37.558;126.950;2022-07-23T02:48:47;29.83;;;26.83;;
10863;SDS011;5485;37.558;126.950;2022-07-23T02:51:14;28.50;;;25.77;;
10863;SDS011;5485;37.558;126.950;2022-07-23T02:53:41;31.25;;;27.70;;
10863;SDS011;5485;37.558;126.950;2022-07-23T02:56:08;30.80;;;27.63;;
10863;SDS011;5485;37.558;126.950;2022-07-23T02:58:35;29.55;;;26.75;;
10863;SDS011;5485;37.558;126.950;2022-07-23T03:01:02;29.67;;;26.85;;
10863;SDS011;5485;37.558;126.950;2022-07-23T03:03:29;30.77;;;27.45;;
10863;SDS011;5485;37.558;126.950;2022-07-23T03:05:56;30.50;;;27.42;;
10863;SDS011;5485;37.558;126.950;2022-07-23T03:08:23;32.47;;;29.08;;
10863;SDS011;5485;37.558;126.950;2022-07-23T03:10:50;32.67;;;29.38;;
10863;SDS011;5485;37.558;126.950;2022-07-23T03:13:17;30.98;;;27.98;;
10863;SDS011;5485;37.558;126.950;2022-07-23T03:15:44;30.33;;;27.33;;
10863;SDS011;5485;37.558;126.950;2022-07-23T03:18:11;33.38;;;29.98;;
10863;SDS011;5485;37.558;126.950;2022-07-23T03:20:38;29.27;;;26.40;;
10863;SDS011;5485;37.558;126.950;2022-07-23T03:23:05;32.20;;;28.83;;
10863;SDS011;5485;37.558;126.950;2022-07-23T03:25:32;30.38;;;27.35;;
10863;SDS011;5485;37.558;126.950;2022-07-23T03:27:59;29.67;;;26.73;;
10863;SDS011;5485;37.558;126.950;2022-07-23T03:30:26;30.55;;;27.25;;
10863;SDS011;5485;37.558;126.950;2022-07-23T03:32:53;32.65;;;29.50;;
10863;SDS011;5485;37.558;126.950;2022-07-23T03:35:19;31.75;;;28.75;;
10863;SDS011;5485;37.558;126.950;2022-07-23T03:37:46;32.60;;;29.25;;
10863;SDS011;5485;37.558;126.950;2022-07-23T03:40:13;33.45;;;30.20;;
10863;SDS011;5485;37.558;126.950;2022-07-23T03:42:40;33.58;;;29.42;;
10863;SDS011;5485;37.558;126.950;2022-07-23T03:45:08;30.70;;;27.85;;
10863;SDS011;5485;37.558;126.950;2022-07-23T03:47:36;33.05;;;29.83;;
10863;SDS011;5485;37.558;126.950;2022-07-23T03:50:04;33.42;;;30.33;;
10863;SDS011;5485;37.558;126.950;2022-07-23T03:52:32;30.88;;;27.77;;
10863;SDS011;5485;37.558;126.950;2022-07-23T03:54:58;32.30;;;29.08;;
10863;SDS011;5485;37.558;126.950;2022-07-23T03:57:25;31.17;;;27.95;;
10863;SDS011;5485;37.558;126.950;2022-07-23T03:59:52;31.45;;;28.23;;
10863;SDS011;5485;37.558;126.950;2022-07-23T04:02:19;29.35;;;26.45;;
10863;SDS011;5485;37.558;126.950;2022-07-23T04:04:46;32.10;;;29.00;;
10863;SDS011;5485;37.558;126.950;2022-07-23T04:07:14;31.45;;;28.45;;
10863;SDS011;5485;37.558;126.950;2022-07-23T04:09:43;29.70;;;26.90;;
10863;SDS011;5485;37.558;126.950;2022-07-23T04:12:10;25.90;;;23.60;;
10863;SDS011;5485;37.558;126.950;2022-07-23T04:14:46;31.10;;;27.98;;
10863;SDS011;5485;37.558;126.950;2022-07-23T04:17:13;27.67;;;24.92;;
10863;SDS011;5485;37.558;126.950;2022-07-23T04:19:40;24.73;;;22.13;;
10863;SDS011;5485;37.558;126.950;2022-07-23T04:22:09;25.80;;;23.08;;
10863;SDS011;5485;37.558;126.950;2022-07-23T04:24:37;23.98;;;21.77;;
10863;SDS011;5485;37.558;126.950;2022-07-23T04:27:04;24.33;;;22.13;;
10863;SDS011;5485;37.558;126.950;2022-07-23T04:29:31;23.38;;;21.27;;
10863;SDS011;5485;37.558;126.950;2022-07-23T04:31:58;27.45;;;25.05;;
10863;SDS011;5485;37.558;126.950;2022-07-23T04:34:25;26.15;;;23.63;;
10863;SDS011;5485;37.558;126.950;2022-07-23T04:36:52;24.27;;;21.77;;
10863;SDS011;5485;37.558;126.950;2022-07-23T04:39:19;24.10;;;21.83;;
10863;SDS011;5485;37.558;126.950;2022-07-23T04:41:46;22.38;;;20.20;;
10863;SDS011;5485;37.558;126.950;2022-07-23T04:44:13;23.13;;;20.90;;
10863;SDS011;5485;37.558;126.950;2022-07-23T04:46:40;22.15;;;19.85;;
10863;SDS011;5485;37.558;126.950;2022-07-23T04:49:07;22.85;;;20.65;;
10863;SDS011;5485;37.558;126.950;2022-07-23T04:51:33;22.25;;;19.83;;
10863;SDS011;5485;37.558;126.950;2022-07-23T04:54:00;20.40;;;18.50;;
10863;SDS011;5485;37.558;126.950;2022-07-23T04:56:27;21.33;;;19.40;;
10863;SDS011;5485;37.558;126.950;2022-07-23T04:58:54;21.40;;;19.40;;
10863;SDS011;5485;37.558;126.950;2022-07-23T05:01:21;21.23;;;19.27;;
10863;SDS011;5485;37.558;126.950;2022-07-23T05:03:49;23.55;;;20.70;;
10863;SDS011;5485;37.558;126.950;2022-07-23T05:06:22;21.92;;;19.67;;
10863;SDS011;5485;37.558;126.950;2022-07-23T05:08:49;22.20;;;18.65;;
10863;SDS011;5485;37.558;126.950;2022-07-23T05:11:16;20.20;;;18.35;;
10863;SDS011;5485;37.558;126.950;2022-07-23T05:13:43;21.23;;;19.33;;
10863;SDS011;5485;37.558;126.950;2022-07-23T05:16:10;20.98;;;18.98;;
10863;SDS011;5485;37.558;126.950;2022-07-23T05:18:37;21.13;;;19.20;;
10863;SDS011;5485;37.558;126.950;2022-07-23T05:21:03;21.10;;;19.30;;
10863;SDS011;5485;37.558;126.950;2022-07-23T05:23:31;18.35;;;16.75;;
10863;SDS011;5485;37.558;126.950;2022-07-23T05:25:57;20.25;;;18.23;;
10863;SDS011;5485;37.558;126.950;2022-07-23T05:28:25;21.65;;;19.77;;
10863;SDS011;5485;37.558;126.950;2022-07-23T05:30:52;19.23;;;17.52;;
10863;SDS011;5485;37.558;126.950;2022-07-23T05:33:19;19.25;;;17.42;;
10863;SDS011;5485;37.558;126.950;2022-07-23T05:35:46;19.25;;;17.55;;
10863;SDS011;5485;37.558;126.950;2022-07-23T05:38:13;19.33;;;17.52;;
10863;SDS011;5485;37.558;126.950;2022-07-23T05:40:40;18.52;;;16.67;;
10863;SDS011;5485;37.558;126.950;2022-07-23T05:43:07;20.40;;;18.25;;
10863;SDS011;5485;37.558;126.950;2022-07-23T05:45:33;18.23;;;16.63;;
10863;SDS011;5485;37.558;126.950;2022-07-23T05:48:00;19.33;;;16.55;;
10863;SDS011;5485;37.558;126.950;2022-07-23T05:50:27;18.25;;;16.75;;
10863;SDS011;5485;37.558;126.950;2022-07-23T05:52:54;18.67;;;16.88;;
10863;SDS011;5485;37.558;126.950;2022-07-23T05:55:21;17.55;;;16.05;;
10863;SDS011;5485;37.558;126.950;2022-07-23T05:57:48;17.48;;;15.90;;
10863;SDS011;5485;37.558;126.950;2022-07-23T06:00:15;17.90;;;16.38;;
10863;SDS011;5485;37.558;126.950;2022-07-23T06:02:42;18.35;;;16.85;;
10863;SDS011;5485;37.558;126.950;2022-07-23T06:05:09;18.27;;;16.60;;
10863;SDS011;5485;37.558;126.950;2022-07-23T06:07:37;20.08;;;18.08;;
10863;SDS011;5485;37.558;126.950;2022-07-23T06:10:04;17.70;;;16.35;;
10863;SDS011;5485;37.558;126.950;2022-07-23T06:12:32;18.20;;;16.50;;
10863;SDS011;5485;37.558;126.950;2022-07-23T06:14:59;19.10;;;17.38;;
10863;SDS011;5485;37.558;126.950;2022-07-23T06:17:26;19.25;;;17.27;;
10863;SDS011;5485;37.558;126.950;2022-07-23T06:19:53;18.73;;;16.88;;
10863;SDS011;5485;37.558;126.950;2022-07-23T06:22:21;19.48;;;17.67;;
10863;SDS011;5485;37.558;126.950;2022-07-23T06:24:49;19.30;;;17.58;;
10863;SDS011;5485;37.558;126.950;2022-07-23T06:27:19;18.80;;;17.20;;
10863;SDS011;5485;37.558;126.950;2022-07-23T06:29:46;17.65;;;15.98;;
10863;SDS011;5485;37.558;126.950;2022-07-23T06:32:13;19.25;;;17.65;;
10863;SDS011;5485;37.558;126.950;2022-07-23T06:34:39;17.17;;;15.68;;
10863;SDS011;5485;37.558;126.950;2022-07-23T06:37:06;19.35;;;16.92;;
10863;SDS011;5485;37.558;126.950;2022-07-23T06:39:33;19.52;;;17.35;;
10863;SDS011;5485;37.558;126.950;2022-07-23T06:42:00;17.80;;;16.20;;
10863;SDS011;5485;37.558;126.950;2022-07-23T06:44:27;19.90;;;18.10;;
10863;SDS011;5485;37.558;126.950;2022-07-23T06:46:54;16.17;;;14.88;;
10863;SDS011;5485;37.558;126.950;2022-07-23T06:49:21;19.25;;;15.82;;
10863;SDS011;5485;37.558;126.950;2022-07-23T06:51:48;19.73;;;18.05;;
10863;SDS011;5485;37.558;126.950;2022-07-23T06:54:15;18.90;;;17.38;;
10863;SDS011;5485;37.558;126.950;2022-07-23T06:56:42;19.48;;;17.77;;
10863;SDS011;5485;37.558;126.950;2022-07-23T06:59:09;18.95;;;16.92;;
10863;SDS011;5485;37.558;126.950;2022-07-23T07:01:35;20.13;;;18.20;;
10863;SDS011;5485;37.558;126.950;2022-07-23T07:04:07;18.70;;;16.90;;
10863;SDS011;5485;37.558;126.950;2022-07-23T07:06:34;19.05;;;17.35;;
10863;SDS011;5485;37.558;126.950;2022-07-23T07:09:01;18.88;;;17.17;;
10863;SDS011;5485;37.558;126.950;2022-07-23T07:11:28;18.55;;;16.83;;
10863;SDS011;5485;37.558;126.950;2022-07-23T07:13:55;18.75;;;17.15;;
10863;SDS011;5485;37.558;126.950;2022-07-23T07:16:22;19.23;;;17.33;;
10863;SDS011;5485;37.558;126.950;2022-07-23T07:18:48;19.08;;;17.05;;
10863;SDS011;5485;37.558;126.950;2022-07-23T07:21:15;19.05;;;17.25;;
10863;SDS011;5485;37.558;126.950;2022-07-23T07:23:42;20.80;;;18.95;;
10863;SDS011;5485;37.558;126.950;2022-07-23T07:26:09;19.25;;;17.40;;
10863;SDS011;5485;37.558;126.950;2022-07-23T07:28:36;21.27;;;19.38;;
10863;SDS011;5485;37.558;126.950;2022-07-23T07:31:03;23.48;;;21.25;;
10863;SDS011;5485;37.558;126.950;2022-07-23T07:33:30;20.83;;;18.92;;
10863;SDS011;5485;37.558;126.950;2022-07-23T07:35:57;20.65;;;18.67;;
10863;SDS011;5485;37.558;126.950;2022-07-23T07:38:24;20.55;;;18.48;;
10863;SDS011;5485;37.558;126.950;2022-07-23T07:40:50;21.70;;;19.52;;
10863;SDS011;5485;37.558;126.950;2022-07-23T07:43:17;21.25;;;19.27;;
10863;SDS011;5485;37.558;126.950;2022-07-23T07:45:44;22.88;;;20.70;;
10863;SDS011;5485;37.558;126.950;2022-07-23T07:48:13;30.00;;;26.80;;
10863;SDS011;5485;37.558;126.950;2022-07-23T07:50:40;30.10;;;27.23;;
10863;SDS011;5485;37.558;126.950;2022-07-23T07:53:07;24.80;;;22.60;;
10863;SDS011;5485;37.558;126.950;2022-07-23T07:55:34;26.55;;;24.20;;
10863;SDS011;5485;37.558;126.950;2022-07-23T07:58:01;27.63;;;24.42;;
10863;SDS011;5485;37.558;126.950;2022-07-23T08:00:28;28.58;;;25.98;;
10863;SDS011;5485;37.558;126.950;2022-07-23T08:02:55;25.27;;;22.85;;
10863;SDS011;5485;37.558;126.950;2022-07-23T08:05:23;26.00;;;23.63;;
10863;SDS011;5485;37.558;126.950;2022-07-23T08:07:57;23.00;;;21.02;;
10863;SDS011;5485;37.558;126.950;2022-07-23T08:10:25;26.02;;;23.60;;
10863;SDS011;5485;37.558;126.950;2022-07-23T08:12:54;26.73;;;24.05;;
10863;SDS011;5485;37.558;126.950;2022-07-23T08:15:22;24.27;;;22.17;;
10863;SDS011;5485;37.558;126.950;2022-07-23T08:17:50;23.73;;;21.52;;
10863;SDS011;5485;37.558;126.950;2022-07-23T08:20:18;24.00;;;21.90;;
10863;SDS011;5485;37.558;126.950;2022-07-23T08:22:48;24.33;;;22.23;;
10863;SDS011;5485;37.558;126.950;2022-07-23T08:25:16;29.52;;;26.98;;
10863;SDS011;5485;37.558;126.950;2022-07-23T08:27:47;23.88;;;21.60;;
10863;SDS011;5485;37.558;126.950;2022-07-23T08:30:15;23.85;;;21.48;;
10863;SDS011;5485;37.558;126.950;2022-07-23T08:32:52;22.63;;;20.55;;
10863;SDS011;5485;37.558;126.950;2022-07-23T08:35:33;23.55;;;21.50;;
10863;SDS011;5485;37.558;126.950;2022-07-23T08:38:02;24.77;;;22.67;;
10863;SDS011;5485;37.558;126.950;2022-07-23T08:40:32;22.13;;;19.92;;
10863;SDS011;5485;37.558;126.950;2022-07-23T08:43:04;23.60;;;21.10;;
10863;SDS011;5485;37.558;126.950;2022-07-23T08:45:35;23.40;;;21.15;;
10863;SDS011;5485;37.558;126.950;2022-07-23T08:48:05;22.98;;;20.92;;
10863;SDS011;5485;37.558;126.950;2022-07-23T08:50:41;23.92;;;21.98;;
10863;SDS011;5485;37.558;126.950;2022-07-23T08:53:10;22.95;;;20.75;;
10863;SDS011;5485;37.558;126.950;2022-07-23T08:55:37;23.80;;;21.77;;
10863;SDS011;5485;37.558;126.950;2022-07-23T08:58:04;15.95;;;14.63;;
10863;SDS011;5485;37.558;126.950;2022-07-23T09:00:31;23.75;;;21.60;;
10863;SDS011;5485;37.558;126.950;2022-07-23T09:02:58;17.52;;;15.85;;
10863;SDS011;5485;37.558;126.950;2022-07-23T09:05:25;21.80;;;19.90;;
10863;SDS011;5485;37.558;126.950;2022-07-23T09:08:11;23.70;;;21.60;;
10863;SDS011;5485;37.558;126.950;2022-07-23T09:13:30;19.85;;;18.13;;
10863;SDS011;5485;37.558;126.950;2022-07-23T09:16:01;21.95;;;19.85;;
10863;SDS011;5485;37.558;126.950;2022-07-23T09:18:37;22.98;;;20.73;;
10863;SDS011;5485;37.558;126.950;2022-07-23T09:21:12;21.35;;;19.33;;
10863;SDS011;5485;37.558;126.950;2022-07-23T09:26:28;24.85;;;22.65;;
10863;SDS011;5485;37.558;126.950;2022-07-23T09:29:02;27.35;;;24.75;;
10863;SDS011;5485;37.558;126.950;2022-07-23T09:36:56;28.88;;;26.27;;
10863;SDS011;5485;37.558;126.950;2022-07-23T09:39:34;26.77;;;24.33;;
10863;SDS011;5485;37.558;126.950;2022-07-23T09:42:14;32.10;;;29.30;;
10863;SDS011;5485;37.558;126.950;2022-07-23T09:44:49;29.83;;;26.80;;
10863;SDS011;5485;37.558;126.950;2022-07-23T09:47:21;27.65;;;25.25;;
10863;SDS011;5485;37.558;126.950;2022-07-23T09:52:45;27.30;;;24.75;;
10863;SDS011;5485;37.558;126.950;2022-07-23T09:55:15;28.15;;;25.52;;
10863;SDS011;5485;37.558;126.950;2022-07-23T09:57:44;29.80;;;26.80;;
10863;SDS011;5485;37.558;126.950;2022-07-23T10:00:21;28.45;;;25.83;;
10863;SDS011;5485;37.558;126.950;2022-07-23T10:02:50;29.15;;;26.25;;
10863;SDS011;5485;37.558;126.950;2022-07-23T10:05:18;35.53;;;32.30;;
10863;SDS011;5485;37.558;126.950;2022-07-23T10:07:46;30.70;;;27.90;;
10863;SDS011;5485;37.558;126.950;2022-07-23T10:10:14;33.97;;;30.45;;
10863;SDS011;5485;37.558;126.950;2022-07-23T10:12:46;30.40;;;27.42;;
10863;SDS011;5485;37.558;126.950;2022-07-23T10:15:16;30.55;;;27.65;;
10863;SDS011;5485;37.558;126.950;2022-07-23T10:17:44;32.28;;;29.13;;
10863;SDS011;5485;37.558;126.950;2022-07-23T10:20:11;32.92;;;29.90;;
10863;SDS011;5485;37.558;126.950;2022-07-23T10:25:49;33.30;;;30.08;;
10863;SDS011;5485;37.558;126.950;2022-07-23T10:33:46;38.67;;;34.92;;
10863;SDS011;5485;37.558;126.950;2022-07-23T10:42:11;47.63;;;42.55;;
10863;SDS011;5485;37.558;126.950;2022-07-23T10:44:43;49.92;;;44.58;;
10863;SDS011;5485;37.558;126.950;2022-07-23T10:47:31;51.25;;;44.80;;
10863;SDS011;5485;37.558;126.950;2022-07-23T10:50:40;53.47;;;47.60;;
10863;SDS011;5485;37.558;126.950;2022-07-23T10:58:01;59.50;;;49.50;;
10863;SDS011;5485;37.558;126.950;2022-07-23T11:00:30;58.70;;;48.60;;
10863;SDS011;5485;37.558;126.950;2022-07-23T11:03:01;72.55;;;53.45;;
10863;SDS011;5485;37.558;126.950;2022-07-23T11:08:20;65.75;;;49.17;;
10863;SDS011;5485;37.558;126.950;2022-07-23T11:10:51;59.60;;;49.88;;
10863;SDS011;5485;37.558;126.950;2022-07-23T11:13:38;64.28;;;49.90;;
10863;SDS011;5485;37.558;126.950;2022-07-23T11:16:14;57.88;;;47.78;;
10863;SDS011;5485;37.558;126.950;2022-07-23T11:34:41;45.28;;;38.55;;
10863;SDS011;5485;37.558;126.950;2022-07-23T11:37:10;52.08;;;41.40;;
10863;SDS011;5485;37.558;126.950;2022-07-23T11:39:38;48.80;;;41.00;;
10863;SDS011;5485;37.558;126.950;2022-07-23T11:42:06;51.60;;;38.90;;
10863;SDS011;5485;37.558;126.950;2022-07-23T11:44:37;51.65;;;43.33;;
10863;SDS011;5485;37.558;126.950;2022-07-23T11:47:05;47.63;;;42.33;;
10863;SDS011;5485;37.558;126.950;2022-07-23T11:49:34;44.28;;;37.17;;
10863;SDS011;5485;37.558;126.950;2022-07-23T11:52:05;42.53;;;37.95;;
10863;SDS011;5485;37.558;126.950;2022-07-23T11:54:35;37.72;;;33.53;;
10863;SDS011;5485;37.558;126.950;2022-07-23T11:57:12;37.58;;;33.60;;
10863;SDS011;5485;37.558;126.950;2022-07-23T11:59:39;38.30;;;33.15;;
10863;SDS011;5485;37.558;126.950;2022-07-23T12:02:09;38.80;;;33.05;;
10863;SDS011;5485;37.558;126.950;2022-07-23T12:04:37;35.58;;;31.80;;
10863;SDS011;5485;37.558;126.950;2022-07-23T12:07:05;40.13;;;35.83;;
10863;SDS011;5485;37.558;126.950;2022-07-23T12:09:48;37.47;;;31.27;;
10863;SDS011;5485;37.558;126.950;2022-07-23T12:12:15;34.95;;;30.58;;
10863;SDS011;5485;37.558;126.950;2022-07-23T12:17:20;31.17;;;27.90;;
10863;SDS011;5485;37.558;126.950;2022-07-23T12:19:54;28.40;;;25.67;;
10863;SDS011;5485;37.558;126.950;2022-07-23T12:22:26;27.42;;;24.63;;
10863;SDS011;5485;37.558;126.950;2022-07-23T12:25:00;27.70;;;24.90;;
10863;SDS011;5485;37.558;126.950;2022-07-23T12:27:33;27.75;;;24.80;;
10863;SDS011;5485;37.558;126.950;2022-07-23T12:30:19;31.77;;;28.48;;
10863;SDS011;5485;37.558;126.950;2022-07-23T12:32:55;30.20;;;27.00;;
10863;SDS011;5485;37.558;126.950;2022-07-23T12:35:29;28.08;;;25.02;;
10863;SDS011;5485;37.558;126.950;2022-07-23T12:38:02;29.52;;;26.48;;
10863;SDS011;5485;37.558;126.950;2022-07-23T12:40:35;29.98;;;27.02;;
10863;SDS011;5485;37.558;126.950;2022-07-23T12:43:09;34.45;;;30.92;;
10863;SDS011;5485;37.558;126.950;2022-07-23T12:51:27;32.63;;;28.20;;
10863;SDS011;5485;37.558;126.950;2022-07-23T12:53:57;33.42;;;29.83;;
10863;SDS011;5485;37.558;126.950;2022-07-23T12:56:32;37.33;;;30.15;;
10863;SDS011;5485;37.558;126.950;2022-07-23T13:01:56;33.95;;;30.20;;
10863;SDS011;5485;37.558;126.950;2022-07-23T13:04:30;38.00;;;32.58;;
10863;SDS011;5485;37.558;126.950;2022-07-23T13:06:59;39.45;;;31.85;;
10863;SDS011;5485;37.558;126.950;2022-07-23T13:09:30;40.78;;;35.65;;
10863;SDS011;5485;37.558;126.950;2022-07-23T13:11:59;42.67;;;33.50;;
10863;SDS011;5485;37.558;126.950;2022-07-23T13:14:26;35.53;;;29.48;;
10863;SDS011;5485;37.558;126.950;2022-07-23T13:16:54;37.17;;;30.00;;
10863;SDS011;5485;37.558;126.950;2022-07-23T13:19:21;34.35;;;28.63;;
10863;SDS011;5485;37.558;126.950;2022-07-23T13:21:48;29.45;;;26.35;;
10863;SDS011;5485;37.558;126.950;2022-07-23T13:24:15;27.15;;;24.40;;
10863;SDS011;5485;37.558;126.950;2022-07-23T13:26:42;28.60;;;24.20;;
10863;SDS011;5485;37.558;126.950;2022-07-23T13:29:11;26.58;;;23.88;;
10863;SDS011;5485;37.558;126.950;2022-07-23T13:31:38;30.17;;;26.92;;
10863;SDS011;5485;37.558;126.950;2022-07-23T13:34:05;33.08;;;26.25;;
10863;SDS011;5485;37.558;126.950;2022-07-23T13:36:33;35.03;;;27.13;;
10863;SDS011;5485;37.558;126.950;2022-07-23T13:39:01;34.45;;;27.92;;
10863;SDS011;5485;37.558;126.950;2022-07-23T13:41:29;31.10;;;26.40;;
10863;SDS011;5485;37.558;126.950;2022-07-23T13:43:56;38.13;;;28.80;;
10863;SDS011;5485;37.558;126.950;2022-07-23T13:46:23;39.60;;;29.52;;
10863;SDS011;5485;37.558;126.950;2022-07-23T13:48:50;41.75;;;29.98;;
10863;SDS011;5485;37.558;126.950;2022-07-23T13:51:17;35.65;;;30.05;;
10863;SDS011;5485;37.558;126.950;2022-07-23T13:53:44;41.28;;;31.38;;
10863;SDS011;5485;37.558;126.950;2022-07-23T13:56:12;38.90;;;31.25;;
10863;SDS011;5485;37.558;126.950;2022-07-23T13:58:39;41.60;;;31.02;;
10863;SDS011;5485;37.558;126.950;2022-07-23T14:01:06;35.08;;;29.35;;
10863;SDS011;5485;37.558;126.950;2022-07-23T14:03:33;40.40;;;30.42;;
10863;SDS011;5485;37.558;126.950;2022-07-23T14:06:00;39.20;;;31.23;;
10863;SDS011;5485;37.558;126.950;2022-07-23T14:08:27;33.90;;;28.17;;
10863;SDS011;5485;37.558;126.950;2022-07-23T14:10:54;38.55;;;29.17;;
10863;SDS011;5485;37.558;126.950;2022-07-23T14:13:21;30.67;;;27.17;;
10863;SDS011;5485;37.558;126.950;2022-07-23T14:15:47;30.88;;;27.20;;
10863;SDS011;5485;37.558;126.950;2022-07-23T14:18:16;38.03;;;29.13;;
10863;SDS011;5485;37.558;126.950;2022-07-23T14:20:43;41.22;;;30.77;;
10863;SDS011;5485;37.558;126.950;2022-07-23T14:23:10;34.45;;;28.83;;
10863;SDS011;5485;37.558;126.950;2022-07-23T14:25:36;41.38;;;30.48;;
10863;SDS011;5485;37.558;126.950;2022-07-23T14:28:03;39.47;;;29.35;;
10863;SDS011;5485;37.558;126.950;2022-07-23T14:30:30;36.95;;;28.05;;
10863;SDS011;5485;37.558;126.950;2022-07-23T14:32:57;36.70;;;27.77;;
10863;SDS011;5485;37.558;126.950;2022-07-23T14:35:24;33.53;;;27.17;;
10863;SDS011;5485;37.558;126.950;2022-07-23T14:37:51;43.53;;;30.40;;
10863;SDS011;5485;37.558;126.950;2022-07-23T14:40:18;39.65;;;28.58;;
10863;SDS011;5485;37.558;126.950;2022-07-23T14:42:45;37.13;;;29.02;;
10863;SDS011;5485;37.558;126.950;2022-07-23T14:45:12;36.38;;;28.17;;
10863;SDS011;5485;37.558;126.950;2022-07-23T14:47:38;41.88;;;30.30;;
10863;SDS011;5485;37.558;126.950;2022-07-23T14:50:05;39.10;;;31.05;;
10863;SDS011;5485;37.558;126.950;2022-07-23T14:52:33;33.00;;;24.98;;
10863;SDS011;5485;37.558;126.950;2022-07-23T14:55:00;34.25;;;26.00;;
10863;SDS011;5485;37.558;126.950;2022-07-23T14:57:27;31.85;;;24.15;;
10863;SDS011;5485;37.558;126.950;2022-07-23T14:59:55;32.85;;;23.98;;
10863;SDS011;5485;37.558;126.950;2022-07-23T15:02:22;34.33;;;24.98;;
10863;SDS011;5485;37.558;126.950;2022-07-23T15:04:48;33.53;;;27.55;;
10863;SDS011;5485;37.558;126.950;2022-07-23T15:07:16;31.90;;;25.00;;
10863;SDS011;5485;37.558;126.950;2022-07-23T15:09:43;33.33;;;23.83;;
10863;SDS011;5485;37.558;126.950;2022-07-23T15:12:12;36.78;;;25.42;;
10863;SDS011;5485;37.558;126.950;2022-07-23T15:14:39;29.55;;;22.90;;
10863;SDS011;5485;37.558;126.950;2022-07-23T15:17:06;29.48;;;22.17;;
10863;SDS011;5485;37.558;126.950;2022-07-23T15:19:37;28.55;;;21.17;;
10863;SDS011;5485;37.558;126.950;2022-07-23T15:22:04;36.55;;;23.35;;